sensor_id;sensor_type;location;lat;lon;timestamp;pressure;altitude;pressure_sealevel;temperature;humidity
36304;BME280;22335;49.800;8.596;2023-03-05T00:03:45;100916.56;;;20.36;41.75
36304;BME280;22335;49.800;8.596;2023-03-05T00:10:29;100911.00;;;20.36;41.72
36304;BME280;22335;49.800;8.596;2023-03-05T00:17:12;100895.91;;;20.25;41.71
36304;BME280;22335;49.800;8.596;2023-03-05T00:23:58;100911.94;;;20.40;41.52
36304;BME280;22335;49.800;8.596;2023-03-05T00:30:42;100862.25;;;20.06;41.86
36304;BME280;22335;49.800;8.596;2023-03-05T00:37:25;100895.16;;;20.37;41.72
36304;BME280;22335;49.800;8.596;2023-03-05T00:44:11;100895.03;;;20.33;41.65
36304;BME280;22335;49.800;8.596;2023-03-05T00:50:55;100891.09;;;20.34;41.63
36304;BME280;22335;49.800;8.596;2023-03-05T00:57:39;100887.03;;;20.32;41.71
36304;BME280;22335;49.800;8.596;2023-03-05T01:12:45;100878.03;;;20.35;41.51
36304;BME280;22335;49.800;8.596;2023-03-05T01:19:29;100867.25;;;20.33;41.45
36304;BME280;22335;49.800;8.596;2023-03-05T01:26:12;100866.31;;;20.29;41.74
36304;BME280;22335;49.800;8.596;2023-03-05T01:32:58;100859.38;;;20.35;41.46
36304;BME280;22335;49.800;8.596;2023-03-05T01:39:42;100792.91;;;19.97;41.28
36304;BME280;22335;49.800;8.596;2023-03-05T01:46:32;100848.28;;;20.35;41.45
36304;BME280;22335;49.800;8.596;2023-03-05T01:53:17;100852.41;;;20.29;41.55
36304;BME280;22335;49.800;8.596;2023-03-05T02:00:05;100842.91;;;20.30;41.44
36304;BME280;22335;49.800;8.596;2023-03-05T02:06:54;100834.94;;;20.29;41.42
36304;BME280;22335;49.800;8.596;2023-03-05T02:13:40;100823.72;;;20.37;41.24
36304;BME280;22335;49.800;8.596;2023-03-05T02:20:26;100823.47;;;20.30;41.30
36304;BME280;22335;49.800;8.596;2023-03-05T02:27:13;100817.25;;;20.33;41.31
36304;BME280;22335;49.800;8.596;2023-03-05T02:33:56;100812.78;;;20.20;41.48
36304;BME280;22335;49.800;8.596;2023-03-05T02:40:40;100807.50;;;20.27;41.46
36304;BME280;22335;49.800;8.596;2023-03-05T02:47:26;100809.09;;;20.28;41.39
36304;BME280;22335;49.800;8.596;2023-03-05T02:54:10;100776.78;;;20.11;41.45
36304;BME280;22335;49.800;8.596;2023-03-05T03:00:54;100786.75;;;20.24;41.40
36304;BME280;22335;49.800;8.596;2023-03-05T03:07:43;100761.16;;;20.19;41.42
36304;BME280;22335;49.800;8.596;2023-03-05T03:14:30;100774.84;;;20.24;41.39
36304;BME280;22335;49.800;8.596;2023-03-05T03:21:18;100561.25;;;18.86;41.36
36304;BME280;22335;49.800;8.596;2023-03-05T03:28:05;100761.44;;;20.26;41.24
36304;BME280;22335;49.800;8.596;2023-03-05T03:34:48;100757.25;;;20.20;41.54
36304;BME280;22335;49.800;8.596;2023-03-05T03:41:32;100754.59;;;20.23;41.27
36304;BME280;22335;49.800;8.596;2023-03-05T04:03:19;100731.91;;;20.21;41.26
36304;BME280;22335;49.800;8.596;2023-03-05T04:10:03;100726.00;;;20.23;41.06
36304;BME280;22335;49.800;8.596;2023-03-05T04:16:47;100725.41;;;20.17;41.37
36304;BME280;22335;49.800;8.596;2023-03-05T04:23:32;100721.34;;;20.15;41.31
36304;BME280;22335;49.800;8.596;2023-03-05T04:30:15;100716.97;;;20.14;41.31
36304;BME280;22335;49.800;8.596;2023-03-05T04:36:59;100719.50;;;20.19;41.40
36304;BME280;22335;49.800;8.596;2023-03-05T04:43:46;100711.31;;;20.22;41.15
36304;BME280;22335;49.800;8.596;2023-03-05T04:50:30;100710.63;;;20.25;41.15
36304;BME280;22335;49.800;8.596;2023-03-05T04:57:14;100591.53;;;19.33;41.29
36304;BME280;22335;49.800;8.596;2023-03-05T05:03:59;100704.91;;;20.10;41.24
36304;BME280;22335;49.800;8.596;2023-03-05T05:10:45;100695.63;;;20.06;41.26
36304;BME280;22335;49.800;8.596;2023-03-05T05:17:36;100475.69;;;18.63;41.23
36304;BME280;22335;49.800;8.596;2023-03-05T05:24:21;100706.66;;;20.14;41.11
36304;BME280;22335;49.800;8.596;2023-03-05T05:31:09;100699.50;;;20.13;41.27
36304;BME280;22335;49.800;8.596;2023-03-05T05:37:54;100696.72;;;20.13;41.13
36304;BME280;22335;49.800;8.596;2023-03-05T05:44:39;100699.81;;;20.12;41.29
36304;BME280;22335;49.800;8.596;2023-03-05T05:51:23;100701.22;;;20.18;41.13
36304;BME280;22335;49.800;8.596;2023-03-05T05:58:07;100697.25;;;20.07;41.29
36304;BME280;22335;49.800;8.596;2023-03-05T06:04:52;100616.25;;;19.59;41.21
36304;BME280;22335;49.800;8.596;2023-03-05T06:11:38;100653.34;;;19.88;41.32
36304;BME280;22335;49.800;8.596;2023-03-05T06:18:21;100692.19;;;20.09;41.29
36304;BME280;22335;49.800;8.596;2023-03-05T06:25:08;100618.53;;;19.57;41.30
36304;BME280;22335;49.800;8.596;2023-03-05T06:31:52;100685.81;;;20.08;41.28
36304;BME280;22335;49.800;8.596;2023-03-05T06:38:36;100689.88;;;20.11;41.20
36304;BME280;22335;49.800;8.596;2023-03-05T06:45:21;100567.88;;;19.35;41.13
36304;BME280;22335;49.800;8.596;2023-03-05T06:52:05;100612.53;;;19.76;40.78
36304;BME280;22335;49.800;8.596;2023-03-05T06:58:51;100683.88;;;20.21;40.96
36304;BME280;22335;49.800;8.596;2023-03-05T07:05:38;100682.94;;;20.17;41.11
36304;BME280;22335;49.800;8.596;2023-03-05T07:12:22;100678.97;;;20.06;41.17
36304;BME280;22335;49.800;8.596;2023-03-05T07:19:05;100678.19;;;20.17;41.13
36304;BME280;22335;49.800;8.596;2023-03-05T07:25:52;100683.50;;;20.10;41.22
36304;BME280;22335;49.800;8.596;2023-03-05T07:32:36;100664.16;;;20.01;41.24
36304;BME280;22335;49.800;8.596;2023-03-05T07:39:19;100676.91;;;20.15;40.97
36304;BME280;22335;49.800;8.596;2023-03-05T07:46:05;100667.41;;;20.03;41.33
36304;BME280;22335;49.800;8.596;2023-03-05T07:52:50;100676.31;;;20.55;40.90
36304;BME280;22335;49.800;8.596;2023-03-05T07:59:34;100685.34;;;20.64;41.24
36304;BME280;22335;49.800;8.596;2023-03-05T08:06:19;100674.00;;;20.81;41.42
36304;BME280;22335;49.800;8.596;2023-03-05T08:13:04;100618.28;;;20.53;41.52
36304;BME280;22335;49.800;8.596;2023-03-05T08:19:48;100667.84;;;21.00;41.58
36304;BME280;22335;49.800;8.596;2023-03-05T08:26:35;100573.69;;;20.49;41.58
36304;BME280;22335;49.800;8.596;2023-03-05T08:33:19;100656.69;;;21.12;41.53
36304;BME280;22335;49.800;8.596;2023-03-05T08:40:04;100657.81;;;21.11;41.91
36304;BME280;22335;49.800;8.596;2023-03-05T08:46:49;100393.13;;;19.48;42.04
36304;BME280;22335;49.800;8.596;2023-03-05T08:53:33;100653.19;;;21.15;41.84
36304;BME280;22335;49.800;8.596;2023-03-05T09:00:17;100639.81;;;21.21;41.78
36304;BME280;22335;49.800;8.596;2023-03-05T09:07:03;100638.88;;;21.29;41.89
36304;BME280;22335;49.800;8.596;2023-03-05T09:13:47;100664.63;;;21.38;41.82
36304;BME280;22335;49.800;8.596;2023-03-05T09:20:31;100627.19;;;21.36;42.14
36304;BME280;22335;49.800;8.596;2023-03-05T09:27:16;100619.16;;;21.34;41.99
36304;BME280;22335;49.800;8.596;2023-03-05T09:33:59;100626.56;;;21.42;42.14
36304;BME280;22335;49.800;8.596;2023-03-05T09:40:51;100631.91;;;21.48;42.12
36304;BME280;22335;49.800;8.596;2023-03-05T09:47:48;100527.19;;;20.87;42.23
36304;BME280;22335;49.800;8.596;2023-03-05T09:54:37;100613.22;;;21.48;42.39
36304;BME280;22335;49.800;8.596;2023-03-05T10:01:27;100604.97;;;21.52;42.72
36304;BME280;22335;49.800;8.596;2023-03-05T10:08:19;100594.56;;;21.08;41.43
36304;BME280;22335;49.800;8.596;2023-03-05T10:15:10;100547.06;;;20.61;41.38
36304;BME280;22335;49.800;8.596;2023-03-05T10:22:10;100590.00;;;20.88;41.27
36304;BME280;22335;49.800;8.596;2023-03-05T10:29:12;100575.03;;;20.92;41.34
36304;BME280;22335;49.800;8.596;2023-03-05T10:36:28;100571.34;;;20.88;41.09
36304;BME280;22335;49.800;8.596;2023-03-05T10:43:23;100574.38;;;21.11;40.91
36304;BME280;22335;49.800;8.596;2023-03-05T10:50:16;100557.31;;;21.25;40.71
36304;BME280;22335;49.800;8.596;2023-03-05T10:57:15;100553.81;;;21.28;40.44
36304;BME280;22335;49.800;8.596;2023-03-05T11:04:02;100541.31;;;21.22;40.69
36304;BME280;22335;49.800;8.596;2023-03-05T11:11:02;100547.31;;;21.24;40.73
36304;BME280;22335;49.800;8.596;2023-03-05T11:18:03;100440.53;;;20.69;40.82
36304;BME280;22335;49.800;8.596;2023-03-05T11:25:13;100532.69;;;21.27;40.87
36304;BME280;22335;49.800;8.596;2023-03-05T11:32:18;100520.16;;;21.33;40.87
36304;BME280;22335;49.800;8.596;2023-03-05T11:39:14;100522.72;;;21.10;42.01
36304;BME280;22335;49.800;8.596;2023-03-05T11:46:01;100499.44;;;21.03;42.08
36304;BME280;22335;49.800;8.596;2023-03-05T11:52:48;100511.81;;;21.33;41.95
36304;BME280;22335;49.800;8.596;2023-03-05T11:59:34;100489.78;;;21.40;42.03
36304;BME280;22335;49.800;8.596;2023-03-05T12:06:27;100483.44;;;21.56;41.88
36304;BME280;22335;49.800;8.596;2023-03-05T12:13:22;100474.53;;;21.50;42.34
36304;BME280;22335;49.800;8.596;2023-03-05T12:20:13;100356.56;;;20.91;42.25
36304;BME280;22335;49.800;8.596;2023-03-05T12:27:15;100387.69;;;21.13;42.79
36304;BME280;22335;49.800;8.596;2023-03-05T12:34:46;100456.94;;;21.62;42.79
36304;BME280;22335;49.800;8.596;2023-03-05T12:41:33;100439.78;;;21.60;43.05
36304;BME280;22335;49.800;8.596;2023-03-05T12:48:47;100423.97;;;21.64;43.30
36304;BME280;22335;49.800;8.596;2023-03-05T12:55:33;100409.78;;;21.69;42.97
36304;BME280;22335;49.800;8.596;2023-03-05T13:02:24;100399.00;;;21.68;42.89
36304;BME280;22335;49.800;8.596;2023-03-05T13:09:16;100390.03;;;21.74;42.96
36304;BME280;22335;49.800;8.596;2023-03-05T13:16:03;100386.38;;;21.38;42.04
36304;BME280;22335;49.800;8.596;2023-03-05T13:23:01;100354.22;;;21.09;42.40
36304;BME280;22335;49.800;8.596;2023-03-05T13:29:57;100367.59;;;21.19;42.45
36304;BME280;22335;49.800;8.596;2023-03-05T13:36:47;100363.47;;;21.29;42.27
36304;BME280;22335;49.800;8.596;2023-03-05T13:43:42;100365.28;;;21.22;42.27
36304;BME280;22335;49.800;8.596;2023-03-05T13:50:28;100359.34;;;21.23;42.25
36304;BME280;22335;49.800;8.596;2023-03-05T13:57:32;100351.25;;;21.02;42.49
36304;BME280;22335;49.800;8.596;2023-03-05T14:04:20;100336.19;;;20.87;42.36
36304;BME280;22335;49.800;8.596;2023-03-05T14:11:13;100328.91;;;21.14;42.32
36304;BME280;22335;49.800;8.596;2023-03-05T14:18:16;100238.06;;;20.55;42.51
36304;BME280;22335;49.800;8.596;2023-03-05T14:25:01;100307.13;;;21.01;42.62
36304;BME280;22335;49.800;8.596;2023-03-05T14:31:48;100302.84;;;21.03;42.49
36304;BME280;22335;49.800;8.596;2023-03-05T14:38:38;100290.63;;;21.08;42.35
36304;BME280;22335;49.800;8.596;2023-03-05T14:45:24;100202.13;;;20.62;42.32
36304;BME280;22335;49.800;8.596;2023-03-05T14:52:09;100271.41;;;21.03;42.39
36304;BME280;22335;49.800;8.596;2023-03-05T14:58:58;100251.69;;;21.08;42.27
36304;BME280;22335;49.800;8.596;2023-03-05T15:05:43;100138.19;;;20.46;42.28
36304;BME280;22335;49.800;8.596;2023-03-05T15:12:29;100204.50;;;20.95;42.26
36304;BME280;22335;49.800;8.596;2023-03-05T15:19:14;100208.28;;;21.03;42.36
36304;BME280;22335;49.800;8.596;2023-03-05T15:25:57;100216.78;;;21.10;42.54
36304;BME280;22335;49.800;8.596;2023-03-05T15:32:45;100207.00;;;21.16;42.23
36304;BME280;22335;49.800;8.596;2023-03-05T15:39:30;99444.41;;;16.32;42.10
36304;BME280;22335;49.800;8.596;2023-03-05T15:46:14;100195.00;;;20.96;42.47
36304;BME280;22335;49.800;8.596;2023-03-05T15:52:58;100183.72;;;20.89;42.37
36304;BME280;22335;49.800;8.596;2023-03-05T15:59:43;100091.16;;;20.38;42.14
36304;BME280;22335;49.800;8.596;2023-03-05T16:06:27;100169.97;;;20.96;42.18
36304;BME280;22335;49.800;8.596;2023-03-05T16:13:14;100163.19;;;20.94;42.50
36304;BME280;22335;49.800;8.596;2023-03-05T16:20:04;100164.38;;;21.48;42.44
36304;BME280;22335;49.800;8.596;2023-03-05T16:26:49;100154.56;;;21.54;42.09
36304;BME280;22335;49.800;8.596;2023-03-05T16:33:33;100150.44;;;21.28;41.81
36304;BME280;22335;49.800;8.596;2023-03-05T16:40:18;100141.84;;;21.17;42.10
36304;BME280;22335;49.800;8.596;2023-03-05T16:47:02;100119.94;;;20.96;42.29
36304;BME280;22335;49.800;8.596;2023-03-05T16:53:48;100146.16;;;21.15;42.26
36304;BME280;22335;49.800;8.596;2023-03-05T17:00:33;100138.53;;;21.12;42.30
36304;BME280;22335;49.800;8.596;2023-03-05T17:07:17;100122.50;;;21.05;42.31
36304;BME280;22335;49.800;8.596;2023-03-05T17:14:00;100133.88;;;21.16;42.19
36304;BME280;22335;49.800;8.596;2023-03-05T17:20:48;100131.91;;;21.16;42.21
36304;BME280;22335;49.800;8.596;2023-03-05T17:27:32;100058.06;;;20.48;42.31
36304;BME280;22335;49.800;8.596;2023-03-05T17:34:17;100132.88;;;20.89;42.66
36304;BME280;22335;49.800;8.596;2023-03-05T17:41:15;100122.72;;;20.96;42.56
36304;BME280;22335;49.800;8.596;2023-03-05T17:48:00;100003.31;;;20.14;42.84
36304;BME280;22335;49.800;8.596;2023-03-05T17:54:43;100124.56;;;20.73;43.01
36304;BME280;22335;49.800;8.596;2023-03-05T18:01:32;100116.69;;;20.75;42.98
36304;BME280;22335;49.800;8.596;2023-03-05T18:08:15;100058.56;;;20.35;42.92
36304;BME280;22335;49.800;8.596;2023-03-05T18:14:59;100111.03;;;20.71;42.96
36304;BME280;22335;49.800;8.596;2023-03-05T18:21:45;100101.47;;;20.69;43.07
36304;BME280;22335;49.800;8.596;2023-03-05T18:28:30;100067.59;;;20.47;43.05
36304;BME280;22335;49.800;8.596;2023-03-05T18:35:13;100047.53;;;20.54;42.95
36304;BME280;22335;49.800;8.596;2023-03-05T18:41:58;100085.00;;;21.34;42.34
36304;BME280;22335;49.800;8.596;2023-03-05T18:48:42;100075.34;;;21.48;42.44
36304;BME280;22335;49.800;8.596;2023-03-05T18:55:29;100070.69;;;21.55;42.63
36304;BME280;22335;49.800;8.596;2023-03-05T19:02:15;100066.59;;;21.69;42.77
36304;BME280;22335;49.800;8.596;2023-03-05T19:08:58;100066.97;;;21.67;42.78
36304;BME280;22335;49.800;8.596;2023-03-05T19:15:49;99993.41;;;21.26;42.77
36304;BME280;22335;49.800;8.596;2023-03-05T19:22:34;100061.16;;;21.76;42.75
36304;BME280;22335;49.800;8.596;2023-03-05T19:29:17;100050.06;;;21.79;42.91
36304;BME280;22335;49.800;8.596;2023-03-05T19:36:00;100044.47;;;21.76;42.92
36304;BME280;22335;49.800;8.596;2023-03-05T19:42:45;100045.41;;;21.83;42.82
36304;BME280;22335;49.800;8.596;2023-03-05T19:49:29;100044.09;;;21.77;42.96
36304;BME280;22335;49.800;8.596;2023-03-05T19:56:13;99923.19;;;21.09;42.85
36304;BME280;22335;49.800;8.596;2023-03-05T20:02:59;100031.34;;;21.14;42.10
36304;BME280;22335;49.800;8.596;2023-03-05T20:09:43;100029.28;;;21.11;42.42
36304;BME280;22335;49.800;8.596;2023-03-05T20:16:28;99914.94;;;20.35;42.26
36304;BME280;22335;49.800;8.596;2023-03-05T20:23:14;99963.13;;;20.62;42.08
36304;BME280;22335;49.800;8.596;2023-03-05T20:29:58;99957.91;;;20.41;42.63
36304;BME280;22335;49.800;8.596;2023-03-05T20:36:42;100010.34;;;20.78;42.59
36304;BME280;22335;49.800;8.596;2023-03-05T20:43:29;100012.06;;;20.67;43.10
36304;BME280;22335;49.800;8.596;2023-03-05T20:50:15;100001.84;;;20.71;42.80
36304;BME280;22335;49.800;8.596;2023-03-05T20:57:00;99996.00;;;20.57;43.05
36304;BME280;22335;49.800;8.596;2023-03-05T21:03:45;99907.50;;;20.04;42.92
36304;BME280;22335;49.800;8.596;2023-03-05T21:10:29;99891.84;;;19.96;43.01
36304;BME280;22335;49.800;8.596;2023-03-05T21:17:13;99969.19;;;20.48;42.91
36304;BME280;22335;49.800;8.596;2023-03-05T21:23:59;99976.44;;;20.53;43.06
36304;BME280;22335;49.800;8.596;2023-03-05T21:30:45;99976.44;;;20.53;42.80
36304;BME280;22335;49.800;8.596;2023-03-05T21:37:29;99963.91;;;20.43;42.99
36304;BME280;22335;49.800;8.596;2023-03-05T21:44:14;99948.41;;;20.42;43.11
36304;BME280;22335;49.800;8.596;2023-03-05T21:50:59;99943.66;;;20.43;43.10
36304;BME280;22335;49.800;8.596;2023-03-05T21:57:47;99942.06;;;20.42;43.42
36304;BME280;22335;49.800;8.596;2023-03-05T22:04:32;99906.16;;;20.33;43.06
36304;BME280;22335;49.800;8.596;2023-03-05T22:11:17;99854.81;;;20.08;42.82
36304;BME280;22335;49.800;8.596;2023-03-05T22:18:01;99897.09;;;20.36;43.06
36304;BME280;22335;49.800;8.596;2023-03-05T22:24:46;99897.53;;;20.38;42.85
36304;BME280;22335;49.800;8.596;2023-03-05T22:31:30;99783.72;;;19.84;42.68
36304;BME280;22335;49.800;8.596;2023-03-05T22:38:14;99865.06;;;20.42;42.70
36304;BME280;22335;49.800;8.596;2023-03-05T22:45:00;99862.66;;;20.41;42.77
36304;BME280;22335;49.800;8.596;2023-03-05T22:51:43;99863.47;;;20.41;42.82
36304;BME280;22335;49.800;8.596;2023-03-05T22:58:27;99846.06;;;20.44;42.43
36304;BME280;22335;49.800;8.596;2023-03-05T23:05:12;99840.72;;;20.36;42.80
36304;BME280;22335;49.800;8.596;2023-03-05T23:11:55;99834.78;;;20.37;42.72
36304;BME280;22335;49.800;8.596;2023-03-05T23:18:39;99803.25;;;20.26;42.57
36304;BME280;22335;49.800;8.596;2023-03-05T23:25:26;99822.47;;;20.35;42.79
36304;BME280;22335;49.800;8.596;2023-03-05T23:32:11;99824.34;;;20.31;42.62
36304;BME280;22335;49.800;8.596;2023-03-05T23:38:55;99818.00;;;20.30;42.68
36304;BME280;22335;49.800;8.596;2023-03-05T23:45:41;99810.47;;;20.31;42.65
36304;BME280;22335;49.800;8.596;2023-03-05T23:52:25;99807.34;;;20.32;42.70
36304;BME280;22335;49.800;8.596;2023-03-05T23:59:09;99799.00;;;20.32;42.55
